sensor_id;sensor_type;location;lat;lon;timestamp;temperature;humidity
41876;DHT22;27555;50.808;4.402;2023-05-10T00:01:37;14.80;99.90
41876;DHT22;27555;50.808;4.402;2023-05-10T00:04:03;14.70;99.90
41876;DHT22;27555;50.808;4.402;2023-05-10T00:06:29;14.80;99.90
41876;DHT22;27555;50.808;4.402;2023-05-10T00:08:55;14.90;99.90
41876;DHT22;27555;50.808;4.402;2023-05-10T00:11:21;15.00;99.90
41876;DHT22;27555;50.808;4.402;2023-05-10T00:13:46;15.00;99.90
41876;DHT22;27555;50.808;4.402;2023-05-10T00:16:12;15.00;99.90
41876;DHT22;27555;50.808;4.402;2023-05-10T00:18:39;15.00;99.90
41876;DHT22;27555;50.808;4.402;2023-05-10T00:21:05;15.00;99.90
41876;DHT22;27555;50.808;4.402;2023-05-10T00:23:31;14.90;99.90
41876;DHT22;27555;50.808;4.402;2023-05-10T00:25:56;14.80;99.90
41876;DHT22;27555;50.808;4.402;2023-05-10T00:28:22;15.00;99.90
41876;DHT22;27555;50.808;4.402;2023-05-10T00:30:48;14.90;99.90
41876;DHT22;27555;50.808;4.402;2023-05-10T00:33:15;15.00;99.90
41876;DHT22;27555;50.808;4.402;2023-05-10T00:35:40;15.10;99.90
41876;DHT22;27555;50.808;4.402;2023-05-10T00:38:06;15.10;99.90
41876;DHT22;27555;50.808;4.402;2023-05-10T00:40:32;15.10;99.90
41876;DHT22;27555;50.808;4.402;2023-05-10T00:42:58;15.10;99.90
41876;DHT22;27555;50.808;4.402;2023-05-10T00:45:25;15.10;99.90
41876;DHT22;27555;50.808;4.402;2023-05-10T00:47:52;15.00;99.90
41876;DHT22;27555;50.808;4.402;2023-05-10T00:50:21;15.00;99.90
41876;DHT22;27555;50.808;4.402;2023-05-10T00:52:47;15.10;99.90
41876;DHT22;27555;50.808;4.402;2023-05-10T00:55:13;15.10;99.90
41876;DHT22;27555;50.808;4.402;2023-05-10T00:57:39;15.20;99.90
41876;DHT22;27555;50.808;4.402;2023-05-10T01:00:05;15.20;99.90
41876;DHT22;27555;50.808;4.402;2023-05-10T01:02:33;15.20;99.90
41876;DHT22;27555;50.808;4.402;2023-05-10T01:05:00;15.10;99.90
41876;DHT22;27555;50.808;4.402;2023-05-10T01:07:26;15.10;99.90
41876;DHT22;27555;50.808;4.402;2023-05-10T01:09:52;15.10;99.90
41876;DHT22;27555;50.808;4.402;2023-05-10T01:12:18;15.00;99.90
41876;DHT22;27555;50.808;4.402;2023-05-10T01:14:43;15.10;99.90
41876;DHT22;27555;50.808;4.402;2023-05-10T01:17:10;15.10;99.90
41876;DHT22;27555;50.808;4.402;2023-05-10T01:19:37;15.00;99.90
41876;DHT22;27555;50.808;4.402;2023-05-10T01:22:22;15.00;99.90
41876;DHT22;27555;50.808;4.402;2023-05-10T01:33:42;14.90;99.90
41876;DHT22;27555;50.808;4.402;2023-05-10T01:38:53;15.00;99.90
41876;DHT22;27555;50.808;4.402;2023-05-10T01:47:16;14.80;99.90
41876;DHT22;27555;50.808;4.402;2023-05-10T01:49:47;14.90;99.90
41876;DHT22;27555;50.808;4.402;2023-05-10T01:52:17;15.00;99.90
41876;DHT22;27555;50.808;4.402;2023-05-10T01:55:01;15.00;99.90
41876;DHT22;27555;50.808;4.402;2023-05-10T01:57:37;14.90;99.90
41876;DHT22;27555;50.808;4.402;2023-05-10T02:00:07;14.80;99.90
41876;DHT22;27555;50.808;4.402;2023-05-10T02:02:37;14.90;99.90
41876;DHT22;27555;50.808;4.402;2023-05-10T02:05:05;14.80;99.90
41876;DHT22;27555;50.808;4.402;2023-05-10T02:07:34;14.80;99.90
41876;DHT22;27555;50.808;4.402;2023-05-10T02:10:05;14.80;99.90
41876;DHT22;27555;50.808;4.402;2023-05-10T02:12:35;14.80;99.90
41876;DHT22;27555;50.808;4.402;2023-05-10T02:15:04;14.90;99.90
41876;DHT22;27555;50.808;4.402;2023-05-10T02:17:32;14.90;99.90
41876;DHT22;27555;50.808;4.402;2023-05-10T02:19:59;14.90;99.90
41876;DHT22;27555;50.808;4.402;2023-05-10T02:22:26;14.90;99.90
41876;DHT22;27555;50.808;4.402;2023-05-10T02:24:54;14.80;99.90
41876;DHT22;27555;50.808;4.402;2023-05-10T02:27:22;14.80;99.90
41876;DHT22;27555;50.808;4.402;2023-05-10T02:29:49;14.80;99.90
41876;DHT22;27555;50.808;4.402;2023-05-10T02:32:16;14.90;99.90
41876;DHT22;27555;50.808;4.402;2023-05-10T02:34:43;14.80;99.90
41876;DHT22;27555;50.808;4.402;2023-05-10T02:37:13;14.70;99.90
41876;DHT22;27555;50.808;4.402;2023-05-10T02:39:40;14.80;99.90
41876;DHT22;27555;50.808;4.402;2023-05-10T02:42:16;14.60;99.90
41876;DHT22;27555;50.808;4.402;2023-05-10T02:44:43;14.60;99.90
41876;DHT22;27555;50.808;4.402;2023-05-10T02:47:10;14.60;99.90
41876;DHT22;27555;50.808;4.402;2023-05-10T02:49:36;14.70;99.90
41876;DHT22;27555;50.808;4.402;2023-05-10T02:52:05;14.70;99.90
41876;DHT22;27555;50.808;4.402;2023-05-10T02:54:43;14.50;99.90
41876;DHT22;27555;50.808;4.402;2023-05-10T02:57:14;14.60;99.90
41876;DHT22;27555;50.808;4.402;2023-05-10T02:59:40;14.60;99.90
41876;DHT22;27555;50.808;4.402;2023-05-10T03:02:08;14.70;99.90
41876;DHT22;27555;50.808;4.402;2023-05-10T03:04:34;14.80;99.90
41876;DHT22;27555;50.808;4.402;2023-05-10T03:07:01;14.80;99.90
41876;DHT22;27555;50.808;4.402;2023-05-10T03:09:26;14.70;99.90
41876;DHT22;27555;50.808;4.402;2023-05-10T03:15:03;14.70;99.90
41876;DHT22;27555;50.808;4.402;2023-05-10T03:17:39;14.60;99.90
41876;DHT22;27555;50.808;4.402;2023-05-10T03:20:09;14.70;99.90
41876;DHT22;27555;50.808;4.402;2023-05-10T03:22:51;14.80;99.90
41876;DHT22;27555;50.808;4.402;2023-05-10T03:25:19;14.50;99.90
41876;DHT22;27555;50.808;4.402;2023-05-10T03:27:46;14.50;99.90
41876;DHT22;27555;50.808;4.402;2023-05-10T03:30:13;14.50;99.90
41876;DHT22;27555;50.808;4.402;2023-05-10T03:32:39;14.60;99.90
41876;DHT22;27555;50.808;4.402;2023-05-10T03:35:08;14.60;99.90
41876;DHT22;27555;50.808;4.402;2023-05-10T03:37:34;14.50;99.90
41876;DHT22;27555;50.808;4.402;2023-05-10T03:40:01;14.60;99.90
41876;DHT22;27555;50.808;4.402;2023-05-10T03:42:27;14.60;99.90
41876;DHT22;27555;50.808;4.402;2023-05-10T03:44:53;14.80;99.90
41876;DHT22;27555;50.808;4.402;2023-05-10T03:47:18;14.60;99.90
41876;DHT22;27555;50.808;4.402;2023-05-10T03:49:44;14.60;99.90
41876;DHT22;27555;50.808;4.402;2023-05-10T03:52:09;14.60;99.90
41876;DHT22;27555;50.808;4.402;2023-05-10T03:54:35;14.80;99.90
41876;DHT22;27555;50.808;4.402;2023-05-10T03:57:01;14.80;99.90
41876;DHT22;27555;50.808;4.402;2023-05-10T03:59:26;14.60;99.90
41876;DHT22;27555;50.808;4.402;2023-05-10T04:01:52;14.60;99.90
41876;DHT22;27555;50.808;4.402;2023-05-10T04:04:18;14.60;99.90
41876;DHT22;27555;50.808;4.402;2023-05-10T04:06:46;14.70;99.90
41876;DHT22;27555;50.808;4.402;2023-05-10T04:09:11;14.80;99.90
41876;DHT22;27555;50.808;4.402;2023-05-10T04:11:37;14.90;99.90
41876;DHT22;27555;50.808;4.402;2023-05-10T04:14:03;14.80;99.90
41876;DHT22;27555;50.808;4.402;2023-05-10T04:16:28;14.70;99.90
41876;DHT22;27555;50.808;4.402;2023-05-10T04:18:54;14.80;99.90
41876;DHT22;27555;50.808;4.402;2023-05-10T04:21:19;14.70;99.90
41876;DHT22;27555;50.808;4.402;2023-05-10T04:23:45;14.70;99.90
41876;DHT22;27555;50.808;4.402;2023-05-10T04:26:11;14.80;99.90
41876;DHT22;27555;50.808;4.402;2023-05-10T04:28:36;14.70;99.90
41876;DHT22;27555;50.808;4.402;2023-05-10T04:31:03;14.40;99.90
41876;DHT22;27555;50.808;4.402;2023-05-10T04:33:29;14.40;99.90
41876;DHT22;27555;50.808;4.402;2023-05-10T04:35:55;14.50;99.90
41876;DHT22;27555;50.808;4.402;2023-05-10T04:38:21;14.60;99.90
41876;DHT22;27555;50.808;4.402;2023-05-10T04:40:47;14.60;99.90
41876;DHT22;27555;50.808;4.402;2023-05-10T04:43:12;14.70;99.90
41876;DHT22;27555;50.808;4.402;2023-05-10T04:45:38;14.80;99.90
41876;DHT22;27555;50.808;4.402;2023-05-10T04:48:04;14.90;99.90
41876;DHT22;27555;50.808;4.402;2023-05-10T04:50:30;14.70;99.90
41876;DHT22;27555;50.808;4.402;2023-05-10T04:52:55;14.80;99.90
41876;DHT22;27555;50.808;4.402;2023-05-10T04:55:21;14.80;99.90
41876;DHT22;27555;50.808;4.402;2023-05-10T04:57:46;14.70;99.90
41876;DHT22;27555;50.808;4.402;2023-05-10T05:00:12;14.60;99.90
41876;DHT22;27555;50.808;4.402;2023-05-10T05:02:41;14.50;99.90
41876;DHT22;27555;50.808;4.402;2023-05-10T05:05:07;14.60;99.90
41876;DHT22;27555;50.808;4.402;2023-05-10T05:07:33;14.70;99.90
41876;DHT22;27555;50.808;4.402;2023-05-10T05:09:58;14.80;99.90
41876;DHT22;27555;50.808;4.402;2023-05-10T05:12:24;14.60;99.90
41876;DHT22;27555;50.808;4.402;2023-05-10T05:14:50;14.60;99.90
41876;DHT22;27555;50.808;4.402;2023-05-10T05:17:16;14.50;99.90
41876;DHT22;27555;50.808;4.402;2023-05-10T05:19:41;14.70;99.90
41876;DHT22;27555;50.808;4.402;2023-05-10T05:22:07;14.60;99.90
41876;DHT22;27555;50.808;4.402;2023-05-10T05:24:36;14.40;99.90
41876;DHT22;27555;50.808;4.402;2023-05-10T05:27:05;14.50;99.90
41876;DHT22;27555;50.808;4.402;2023-05-10T05:29:31;14.40;99.90
41876;DHT22;27555;50.808;4.402;2023-05-10T05:31:57;14.30;99.90
41876;DHT22;27555;50.808;4.402;2023-05-10T05:34:22;14.10;99.90
41876;DHT22;27555;50.808;4.402;2023-05-10T05:36:48;14.10;99.90
41876;DHT22;27555;50.808;4.402;2023-05-10T05:39:14;14.30;99.90
41876;DHT22;27555;50.808;4.402;2023-05-10T05:41:39;14.20;99.90
41876;DHT22;27555;50.808;4.402;2023-05-10T05:44:05;14.20;99.90
41876;DHT22;27555;50.808;4.402;2023-05-10T05:46:31;14.30;99.90
41876;DHT22;27555;50.808;4.402;2023-05-10T05:48:56;14.30;99.90
41876;DHT22;27555;50.808;4.402;2023-05-10T05:51:22;14.30;99.90
41876;DHT22;27555;50.808;4.402;2023-05-10T05:53:48;14.30;99.90
41876;DHT22;27555;50.808;4.402;2023-05-10T05:56:13;14.40;99.90
41876;DHT22;27555;50.808;4.402;2023-05-10T05:58:39;14.40;99.90
41876;DHT22;27555;50.808;4.402;2023-05-10T06:01:05;14.20;99.90
41876;DHT22;27555;50.808;4.402;2023-05-10T06:03:30;14.20;99.90
41876;DHT22;27555;50.808;4.402;2023-05-10T06:05:56;14.20;99.90
41876;DHT22;27555;50.808;4.402;2023-05-10T06:08:22;14.20;99.90
41876;DHT22;27555;50.808;4.402;2023-05-10T06:10:47;14.30;99.90
41876;DHT22;27555;50.808;4.402;2023-05-10T06:13:13;14.10;99.90
41876;DHT22;27555;50.808;4.402;2023-05-10T06:15:42;13.80;99.90
41876;DHT22;27555;50.808;4.402;2023-05-10T06:18:13;13.70;99.90
41876;DHT22;27555;50.808;4.402;2023-05-10T06:20:41;13.80;99.90
41876;DHT22;27555;50.808;4.402;2023-05-10T06:23:07;13.80;99.90
41876;DHT22;27555;50.808;4.402;2023-05-10T06:25:33;13.80;99.90
41876;DHT22;27555;50.808;4.402;2023-05-10T06:28:00;13.80;99.90
41876;DHT22;27555;50.808;4.402;2023-05-10T06:30:25;13.80;99.90
41876;DHT22;27555;50.808;4.402;2023-05-10T06:32:54;13.70;99.90
41876;DHT22;27555;50.808;4.402;2023-05-10T06:35:19;13.80;99.90
41876;DHT22;27555;50.808;4.402;2023-05-10T06:37:46;13.90;99.90
41876;DHT22;27555;50.808;4.402;2023-05-10T06:40:12;14.00;99.90
41876;DHT22;27555;50.808;4.402;2023-05-10T06:42:37;14.00;99.90
41876;DHT22;27555;50.808;4.402;2023-05-10T06:45:03;14.00;99.90
41876;DHT22;27555;50.808;4.402;2023-05-10T06:47:29;14.10;99.90
41876;DHT22;27555;50.808;4.402;2023-05-10T06:49:55;14.30;99.90
41876;DHT22;27555;50.808;4.402;2023-05-10T06:52:21;14.50;99.90
41876;DHT22;27555;50.808;4.402;2023-05-10T06:54:46;14.50;99.90
41876;DHT22;27555;50.808;4.402;2023-05-10T06:57:12;14.50;99.90
41876;DHT22;27555;50.808;4.402;2023-05-10T06:59:38;14.30;99.90
41876;DHT22;27555;50.808;4.402;2023-05-10T07:02:03;14.10;99.90
41876;DHT22;27555;50.808;4.402;2023-05-10T07:04:29;14.20;99.90
41876;DHT22;27555;50.808;4.402;2023-05-10T07:06:54;14.20;99.90
41876;DHT22;27555;50.808;4.402;2023-05-10T07:09:20;14.20;99.90
41876;DHT22;27555;50.808;4.402;2023-05-10T07:11:46;14.20;99.90
41876;DHT22;27555;50.808;4.402;2023-05-10T07:14:11;14.30;99.90
41876;DHT22;27555;50.808;4.402;2023-05-10T07:16:37;14.20;99.90
41876;DHT22;27555;50.808;4.402;2023-05-10T07:19:02;14.30;99.90
41876;DHT22;27555;50.808;4.402;2023-05-10T07:21:30;14.00;99.90
41876;DHT22;27555;50.808;4.402;2023-05-10T07:23:56;13.70;99.90
41876;DHT22;27555;50.808;4.402;2023-05-10T07:26:22;13.90;99.90
41876;DHT22;27555;50.808;4.402;2023-05-10T07:28:47;14.10;99.90
41876;DHT22;27555;50.808;4.402;2023-05-10T07:31:16;14.10;99.90
41876;DHT22;27555;50.808;4.402;2023-05-10T07:33:42;14.10;99.90
41876;DHT22;27555;50.808;4.402;2023-05-10T07:36:10;14.00;99.90
41876;DHT22;27555;50.808;4.402;2023-05-10T07:38:35;14.00;99.90
41876;DHT22;27555;50.808;4.402;2023-05-10T07:41:01;14.00;99.90
41876;DHT22;27555;50.808;4.402;2023-05-10T07:43:27;13.90;99.90
41876;DHT22;27555;50.808;4.402;2023-05-10T07:45:52;13.90;99.90
41876;DHT22;27555;50.808;4.402;2023-05-10T07:48:18;14.10;99.90
41876;DHT22;27555;50.808;4.402;2023-05-10T07:50:44;14.20;99.90
41876;DHT22;27555;50.808;4.402;2023-05-10T07:53:09;14.00;99.90
41876;DHT22;27555;50.808;4.402;2023-05-10T07:55:35;14.10;99.90
41876;DHT22;27555;50.808;4.402;2023-05-10T07:58:01;14.30;99.90
41876;DHT22;27555;50.808;4.402;2023-05-10T08:00:27;14.30;99.90
41876;DHT22;27555;50.808;4.402;2023-05-10T08:02:52;14.30;99.90
41876;DHT22;27555;50.808;4.402;2023-05-10T08:05:18;14.30;99.90
41876;DHT22;27555;50.808;4.402;2023-05-10T08:07:44;14.20;99.90
41876;DHT22;27555;50.808;4.402;2023-05-10T08:10:10;14.30;99.90
41876;DHT22;27555;50.808;4.402;2023-05-10T08:12:40;14.30;99.90
41876;DHT22;27555;50.808;4.402;2023-05-10T08:15:06;14.30;99.90
41876;DHT22;27555;50.808;4.402;2023-05-10T08:17:32;14.50;99.90
41876;DHT22;27555;50.808;4.402;2023-05-10T08:19:58;14.50;99.90
41876;DHT22;27555;50.808;4.402;2023-05-10T08:22:23;14.80;99.90
41876;DHT22;27555;50.808;4.402;2023-05-10T08:27:17;14.80;99.90
41876;DHT22;27555;50.808;4.402;2023-05-10T08:29:42;14.90;99.90
41876;DHT22;27555;50.808;4.402;2023-05-10T08:32:08;15.00;99.90
41876;DHT22;27555;50.808;4.402;2023-05-10T08:34:34;15.00;99.90
41876;DHT22;27555;50.808;4.402;2023-05-10T08:36:59;15.10;99.90
41876;DHT22;27555;50.808;4.402;2023-05-10T08:39:25;15.10;99.90
41876;DHT22;27555;50.808;4.402;2023-05-10T08:41:51;15.00;99.90
41876;DHT22;27555;50.808;4.402;2023-05-10T08:44:18;14.90;99.90
41876;DHT22;27555;50.808;4.402;2023-05-10T08:46:46;15.10;99.90
41876;DHT22;27555;50.808;4.402;2023-05-10T08:49:17;15.00;99.90
41876;DHT22;27555;50.808;4.402;2023-05-10T08:51:49;15.00;99.90
41876;DHT22;27555;50.808;4.402;2023-05-10T08:54:15;15.20;99.90
41876;DHT22;27555;50.808;4.402;2023-05-10T08:56:45;15.30;99.90
41876;DHT22;27555;50.808;4.402;2023-05-10T08:59:11;15.10;99.90
41876;DHT22;27555;50.808;4.402;2023-05-10T09:01:39;15.10;99.90
41876;DHT22;27555;50.808;4.402;2023-05-10T09:04:05;15.00;99.90
41876;DHT22;27555;50.808;4.402;2023-05-10T09:06:31;15.10;99.90
41876;DHT22;27555;50.808;4.402;2023-05-10T09:08:57;15.20;99.90
41876;DHT22;27555;50.808;4.402;2023-05-10T09:11:24;15.20;99.90
41876;DHT22;27555;50.808;4.402;2023-05-10T09:13:51;15.20;99.90
41876;DHT22;27555;50.808;4.402;2023-05-10T09:16:17;15.20;99.90
41876;DHT22;27555;50.808;4.402;2023-05-10T09:18:43;15.10;99.90
41876;DHT22;27555;50.808;4.402;2023-05-10T09:21:09;15.10;99.90
41876;DHT22;27555;50.808;4.402;2023-05-10T09:23:35;15.30;99.90
41876;DHT22;27555;50.808;4.402;2023-05-10T09:26:05;15.50;99.90
41876;DHT22;27555;50.808;4.402;2023-05-10T09:28:51;15.30;99.90
41876;DHT22;27555;50.808;4.402;2023-05-10T09:31:17;15.20;99.90
41876;DHT22;27555;50.808;4.402;2023-05-10T09:33:47;15.00;99.90
41876;DHT22;27555;50.808;4.402;2023-05-10T09:36:14;15.10;99.90
41876;DHT22;27555;50.808;4.402;2023-05-10T09:38:50;15.10;99.90
41876;DHT22;27555;50.808;4.402;2023-05-10T09:41:23;15.00;99.90
41876;DHT22;27555;50.808;4.402;2023-05-10T09:43:52;15.10;99.90
41876;DHT22;27555;50.808;4.402;2023-05-10T09:46:20;15.20;99.90
41876;DHT22;27555;50.808;4.402;2023-05-10T09:48:47;15.10;99.90
41876;DHT22;27555;50.808;4.402;2023-05-10T09:51:39;15.00;99.90
41876;DHT22;27555;50.808;4.402;2023-05-10T09:54:16;15.20;99.90
41876;DHT22;27555;50.808;4.402;2023-05-10T09:56:41;15.00;99.90
41876;DHT22;27555;50.808;4.402;2023-05-10T09:59:10;15.00;99.90
41876;DHT22;27555;50.808;4.402;2023-05-10T10:01:37;15.10;99.90
41876;DHT22;27555;50.808;4.402;2023-05-10T10:04:05;15.20;99.90
41876;DHT22;27555;50.808;4.402;2023-05-10T10:06:38;15.30;99.90
41876;DHT22;27555;50.808;4.402;2023-05-10T10:09:07;15.30;99.90
41876;DHT22;27555;50.808;4.402;2023-05-10T10:11:37;15.40;99.90
41876;DHT22;27555;50.808;4.402;2023-05-10T10:14:04;15.60;99.90
41876;DHT22;27555;50.808;4.402;2023-05-10T10:16:31;15.60;99.90
41876;DHT22;27555;50.808;4.402;2023-05-10T10:18:57;15.60;99.90
41876;DHT22;27555;50.808;4.402;2023-05-10T10:21:23;15.70;99.90
41876;DHT22;27555;50.808;4.402;2023-05-10T10:23:49;15.70;99.90
41876;DHT22;27555;50.808;4.402;2023-05-10T10:26:16;15.70;99.90
41876;DHT22;27555;50.808;4.402;2023-05-10T10:31:23;15.80;99.90
41876;DHT22;27555;50.808;4.402;2023-05-10T10:34:05;15.90;99.90
41876;DHT22;27555;50.808;4.402;2023-05-10T10:36:53;15.90;99.90
41876;DHT22;27555;50.808;4.402;2023-05-10T10:39:18;16.10;99.90
41876;DHT22;27555;50.808;4.402;2023-05-10T10:44:34;16.20;99.90
41876;DHT22;27555;50.808;4.402;2023-05-10T10:49:51;16.40;99.90
41876;DHT22;27555;50.808;4.402;2023-05-10T10:55:04;16.40;99.90
41876;DHT22;27555;50.808;4.402;2023-05-10T10:57:33;16.40;99.90
41876;DHT22;27555;50.808;4.402;2023-05-10T11:03:08;16.40;99.90
41876;DHT22;27555;50.808;4.402;2023-05-10T11:05:39;16.40;99.90
41876;DHT22;27555;50.808;4.402;2023-05-10T11:13:33;16.90;99.90
41876;DHT22;27555;50.808;4.402;2023-05-10T11:16:27;16.80;99.90
41876;DHT22;27555;50.808;4.402;2023-05-10T11:21:22;17.20;99.90
41876;DHT22;27555;50.808;4.402;2023-05-10T11:23:53;17.20;99.90
41876;DHT22;27555;50.808;4.402;2023-05-10T11:26:22;17.30;99.90
41876;DHT22;27555;50.808;4.402;2023-05-10T11:28:52;17.40;99.90
41876;DHT22;27555;50.808;4.402;2023-05-10T11:31:20;17.50;99.90
41876;DHT22;27555;50.808;4.402;2023-05-10T11:33:49;17.40;99.90
41876;DHT22;27555;50.808;4.402;2023-05-10T11:36:20;17.50;99.90
41876;DHT22;27555;50.808;4.402;2023-05-10T11:38:46;17.60;99.90
41876;DHT22;27555;50.808;4.402;2023-05-10T11:41:12;17.80;99.90
41876;DHT22;27555;50.808;4.402;2023-05-10T11:43:41;18.00;99.90
41876;DHT22;27555;50.808;4.402;2023-05-10T11:46:09;17.90;99.90
41876;DHT22;27555;50.808;4.402;2023-05-10T11:48:36;17.90;99.90
41876;DHT22;27555;50.808;4.402;2023-05-10T11:51:02;17.90;99.90
41876;DHT22;27555;50.808;4.402;2023-05-10T11:53:35;18.10;99.90
41876;DHT22;27555;50.808;4.402;2023-05-10T11:56:08;18.20;99.90
41876;DHT22;27555;50.808;4.402;2023-05-10T11:58:36;18.20;99.90
41876;DHT22;27555;50.808;4.402;2023-05-10T12:01:03;18.00;99.90
41876;DHT22;27555;50.808;4.402;2023-05-10T12:03:30;18.00;99.90
41876;DHT22;27555;50.808;4.402;2023-05-10T12:05:57;17.90;99.90
41876;DHT22;27555;50.808;4.402;2023-05-10T12:08:25;18.00;99.90
41876;DHT22;27555;50.808;4.402;2023-05-10T12:10:51;18.10;99.90
41876;DHT22;27555;50.808;4.402;2023-05-10T12:13:18;18.30;99.90
41876;DHT22;27555;50.808;4.402;2023-05-10T12:15:45;18.10;99.90
41876;DHT22;27555;50.808;4.402;2023-05-10T12:18:12;18.10;99.90
41876;DHT22;27555;50.808;4.402;2023-05-10T12:20:38;18.20;99.90
41876;DHT22;27555;50.808;4.402;2023-05-10T12:23:07;18.40;99.90
41876;DHT22;27555;50.808;4.402;2023-05-10T12:25:34;18.40;99.90
41876;DHT22;27555;50.808;4.402;2023-05-10T12:28:03;18.40;99.90
41876;DHT22;27555;50.808;4.402;2023-05-10T12:30:31;18.60;99.90
41876;DHT22;27555;50.808;4.402;2023-05-10T12:33:06;18.50;99.90
41876;DHT22;27555;50.808;4.402;2023-05-10T12:35:33;18.30;99.90
41876;DHT22;27555;50.808;4.402;2023-05-10T12:37:59;18.20;99.90
41876;DHT22;27555;50.808;4.402;2023-05-10T12:40:25;18.30;99.90
41876;DHT22;27555;50.808;4.402;2023-05-10T12:42:51;18.40;99.90
41876;DHT22;27555;50.808;4.402;2023-05-10T12:45:17;18.40;99.90
41876;DHT22;27555;50.808;4.402;2023-05-10T12:47:43;18.40;99.90
41876;DHT22;27555;50.808;4.402;2023-05-10T12:50:10;18.00;99.90
41876;DHT22;27555;50.808;4.402;2023-05-10T12:52:35;18.00;99.90
41876;DHT22;27555;50.808;4.402;2023-05-10T12:55:01;18.00;99.90
41876;DHT22;27555;50.808;4.402;2023-05-10T12:57:29;18.00;99.90
41876;DHT22;27555;50.808;4.402;2023-05-10T12:59:55;18.00;99.90
41876;DHT22;27555;50.808;4.402;2023-05-10T13:02:21;18.40;99.90
41876;DHT22;27555;50.808;4.402;2023-05-10T13:04:48;18.50;99.90
41876;DHT22;27555;50.808;4.402;2023-05-10T13:07:14;18.50;99.90
41876;DHT22;27555;50.808;4.402;2023-05-10T13:09:39;18.60;99.90
41876;DHT22;27555;50.808;4.402;2023-05-10T13:12:05;18.50;99.90
41876;DHT22;27555;50.808;4.402;2023-05-10T13:14:31;18.70;99.90
41876;DHT22;27555;50.808;4.402;2023-05-10T13:16:56;18.60;99.90
41876;DHT22;27555;50.808;4.402;2023-05-10T13:19:22;18.70;99.90
41876;DHT22;27555;50.808;4.402;2023-05-10T13:21:48;18.90;99.90
41876;DHT22;27555;50.808;4.402;2023-05-10T13:24:14;19.10;99.90
41876;DHT22;27555;50.808;4.402;2023-05-10T13:26:40;19.30;99.90
41876;DHT22;27555;50.808;4.402;2023-05-10T13:29:07;19.00;99.90
41876;DHT22;27555;50.808;4.402;2023-05-10T13:31:33;19.10;99.90
41876;DHT22;27555;50.808;4.402;2023-05-10T13:33:59;19.20;99.90
41876;DHT22;27555;50.808;4.402;2023-05-10T13:36:25;19.20;99.90
41876;DHT22;27555;50.808;4.402;2023-05-10T13:38:51;19.00;99.90
41876;DHT22;27555;50.808;4.402;2023-05-10T13:41:19;18.90;99.90
41876;DHT22;27555;50.808;4.402;2023-05-10T13:43:46;19.10;99.90
41876;DHT22;27555;50.808;4.402;2023-05-10T13:46:14;19.00;99.90
41876;DHT22;27555;50.808;4.402;2023-05-10T13:48:39;19.00;99.90
41876;DHT22;27555;50.808;4.402;2023-05-10T13:51:05;18.70;99.90
41876;DHT22;27555;50.808;4.402;2023-05-10T13:53:32;18.60;99.90
41876;DHT22;27555;50.808;4.402;2023-05-10T13:55:58;18.90;99.90
41876;DHT22;27555;50.808;4.402;2023-05-10T13:58:24;19.10;99.90
41876;DHT22;27555;50.808;4.402;2023-05-10T14:00:49;19.30;99.90
41876;DHT22;27555;50.808;4.402;2023-05-10T14:03:15;19.40;99.90
41876;DHT22;27555;50.808;4.402;2023-05-10T14:05:41;19.50;99.90
41876;DHT22;27555;50.808;4.402;2023-05-10T14:08:07;19.40;99.90
41876;DHT22;27555;50.808;4.402;2023-05-10T14:10:34;19.40;99.90
41876;DHT22;27555;50.808;4.402;2023-05-10T14:13:00;19.40;99.90
41876;DHT22;27555;50.808;4.402;2023-05-10T14:15:26;18.90;99.90
41876;DHT22;27555;50.808;4.402;2023-05-10T14:17:52;18.90;99.90
41876;DHT22;27555;50.808;4.402;2023-05-10T14:20:17;18.80;99.90
41876;DHT22;27555;50.808;4.402;2023-05-10T14:22:43;18.70;99.90
41876;DHT22;27555;50.808;4.402;2023-05-10T14:25:09;18.60;99.90
41876;DHT22;27555;50.808;4.402;2023-05-10T14:27:35;18.60;99.90
41876;DHT22;27555;50.808;4.402;2023-05-10T14:30:00;18.50;99.90
41876;DHT22;27555;50.808;4.402;2023-05-10T14:32:26;18.40;99.90
41876;DHT22;27555;50.808;4.402;2023-05-10T14:34:53;18.30;99.90
41876;DHT22;27555;50.808;4.402;2023-05-10T14:37:18;18.20;99.90
41876;DHT22;27555;50.808;4.402;2023-05-10T14:39:44;18.20;99.90
41876;DHT22;27555;50.808;4.402;2023-05-10T14:42:09;18.20;99.90
41876;DHT22;27555;50.808;4.402;2023-05-10T14:44:35;18.30;99.90
41876;DHT22;27555;50.808;4.402;2023-05-10T14:47:01;18.40;99.90
41876;DHT22;27555;50.808;4.402;2023-05-10T14:49:26;18.70;99.90
41876;DHT22;27555;50.808;4.402;2023-05-10T14:51:52;18.60;99.90
41876;DHT22;27555;50.808;4.402;2023-05-10T14:54:18;18.60;99.90
41876;DHT22;27555;50.808;4.402;2023-05-10T14:56:44;18.20;99.90
41876;DHT22;27555;50.808;4.402;2023-05-10T14:59:10;18.10;99.90
41876;DHT22;27555;50.808;4.402;2023-05-10T15:01:36;17.90;99.90
41876;DHT22;27555;50.808;4.402;2023-05-10T15:04:03;17.90;99.90
41876;DHT22;27555;50.808;4.402;2023-05-10T15:06:34;18.10;99.90
41876;DHT22;27555;50.808;4.402;2023-05-10T15:09:02;17.60;99.90
41876;DHT22;27555;50.808;4.402;2023-05-10T15:11:28;17.90;99.90
41876;DHT22;27555;50.808;4.402;2023-05-10T15:13:54;17.70;99.90
41876;DHT22;27555;50.808;4.402;2023-05-10T15:16:20;17.80;99.90
41876;DHT22;27555;50.808;4.402;2023-05-10T15:18:46;17.90;99.90
41876;DHT22;27555;50.808;4.402;2023-05-10T15:21:12;17.40;99.90
41876;DHT22;27555;50.808;4.402;2023-05-10T15:23:38;17.60;99.90
41876;DHT22;27555;50.808;4.402;2023-05-10T15:26:06;17.30;99.90
41876;DHT22;27555;50.808;4.402;2023-05-10T15:28:32;17.20;99.90
41876;DHT22;27555;50.808;4.402;2023-05-10T15:30:57;17.30;99.90
41876;DHT22;27555;50.808;4.402;2023-05-10T15:33:23;17.60;99.90
41876;DHT22;27555;50.808;4.402;2023-05-10T15:35:49;17.60;99.90
41876;DHT22;27555;50.808;4.402;2023-05-10T15:38:15;17.40;99.90
41876;DHT22;27555;50.808;4.402;2023-05-10T15:40:40;17.30;99.90
41876;DHT22;27555;50.808;4.402;2023-05-10T15:43:06;16.90;99.90
41876;DHT22;27555;50.808;4.402;2023-05-10T15:45:32;17.20;99.90
41876;DHT22;27555;50.808;4.402;2023-05-10T15:47:58;17.30;99.90
41876;DHT22;27555;50.808;4.402;2023-05-10T15:50:24;17.40;99.70
41876;DHT22;27555;50.808;4.402;2023-05-10T15:52:50;17.50;99.60
41876;DHT22;27555;50.808;4.402;2023-05-10T15:55:16;17.40;99.90
41876;DHT22;27555;50.808;4.402;2023-05-10T15:57:43;17.60;99.50
41876;DHT22;27555;50.808;4.402;2023-05-10T16:00:10;18.00;97.80
41876;DHT22;27555;50.808;4.402;2023-05-10T16:02:36;18.10;98.10
41876;DHT22;27555;50.808;4.402;2023-05-10T16:05:03;18.00;98.20
41876;DHT22;27555;50.808;4.402;2023-05-10T16:07:29;17.80;98.10
41876;DHT22;27555;50.808;4.402;2023-05-10T16:09:55;17.90;98.20
41876;DHT22;27555;50.808;4.402;2023-05-10T16:12:21;17.70;98.20
41876;DHT22;27555;50.808;4.402;2023-05-10T16:14:47;17.90;98.60